avvertimento per Temporali more information blitzortung!


Rain radar more information rain snow radar


altri nostri siti meteo:

PomeziameteoStazione ufficiale di Pomezia

MeteopomeziaSito sulle condizioni meteo



Temporali Inizio validita dal: 22-05-2019 23:00 Fino: 23-05-2019 07:59 Allerta per: Temporali Livello: Giallo info button

Report METAR

   
LIMP - Parma
Dati ricevuti: 22-05-2019 20:50
DATI Obsoleti
Sereno  
Sereno  
   Vento: S 11.1 km/h
Vento: S 11.1 km/h
Temperatura: 18°C
P.to Rugiada: 13°C
Umidita: 73%
Barometro: 1014 hPa
Visibilita: oltre 10 km
dettagli cloud: Sereno
LIMP 221850Z 20006KT CAVOK 18/13 Q1014
LIPE - Bologna
Dati ricevuti: 22-05-2019 23:20
Sereno  
Sereno  
   Vento: Variabile 3.7 km/h
Vento: Variabile 3.7 km/h
Temperatura: 17°C
P.to Rugiada: 13°C
Umidita: 77%
Barometro: 1015 hPa
Visibilita: oltre 10 km
dettagli cloud: Sereno
LIPE 222120Z VRB02KT CAVOK 17/13 Q1015
LIPO - Brescia/Montichi
Dati ricevuti: 22-05-2019 22:50
Molto nuvoloso  
Molto nuvoloso  
   Vento: NE 11.1 km/h
Vento: NE 11.1 km/h
Temperatura: 19°C
P.to Rugiada: 14°C
Umidita: 73%
Barometro: 1015 hPa
Nuvole: Molto nuvoloso
Visibilita: oltre 10 km
dettagli cloud: Molto nuvoloso 6000 ft
LIPO 222050Z 06006KT 9999 BKN060 19/14 Q1015
LIPF - Ferrara
Dati ricevuti: 22-05-2019 19:55
DATI Obsoleti
Light Thunderstorm, Pioggia, Parzialmente nuvoloso  
Light Thunderstorm, Pioggia, Parzialmente nuvoloso  
   Vento: NE 3.7 km/h
Vento: NE 3.7 km/h
Temperatura: 19°C
P.to Rugiada: 15°C
Umidita: 78%
Barometro: 1013 hPa
Nuvole: Parzialmente nuvoloso
Visibilita: 6 km
dettagli cloud: Parzialmente nuvoloso 1800 ft,
Parzialmente nuvoloso 2000 ft
LIPF 221755Z 04002KT 6000 -TSRA SCT018CB SCT020TCU 19/15 Q1013
LIPL - Ghedi
Dati ricevuti: 22-05-2019 22:55
Temporale, Parzialmente nuvoloso  
Temporale, Parzialmente nuvoloso  
   Vento: NE 5.6 km/h
Vento: NE 5.6 km/h
Temperatura: 18°C
P.to Rugiada: 15°C
Umidita: 83%
Barometro: 1014 hPa
Nuvole: Parzialmente nuvoloso
Visibilita: 8 km
dettagli cloud: Poche nuvole 2500 ft,
Parzialmente nuvoloso 4000 ft
LIPL 222055Z 06003KT 8000 TS FEW025CB SCT040 18/15 Q1014 RMK OVC VIS MIN 8000 WIND THR31 04004KT WIND THR13 05003KT BLU
LIVC - Monte Cimone
Dati ricevuti: 22-05-2019 19:55
DATI Obsoleti
Parzialmente nuvoloso  
Parzialmente nuvoloso  
   Vento: SE 5.6 km/h
Vento: SE 5.6 km/h
Temperatura: 5°C
Temperatura Vento: 4°C
P.to Rugiada: 1°C
Umidita: 76%
Barometro: 1019 hPa
Nuvole: Parzialmente nuvoloso
Visibilita: oltre 10 km
dettagli cloud: Parzialmente nuvoloso 3000 ft
LIVC 221755Z 12003KT 9999 SCT030 05/01 Q1019
LIMS - Piacenza
Dati ricevuti: 22-05-2019 19:55
DATI Obsoleti
Poche nuvole  
Poche nuvole  
   Vento: W 9.3 km/h
Vento: W 9.3 km/h
Temperatura: 19°C
P.to Rugiada: 17°C
Umidita: 88%
Barometro: 1012 hPa
Nuvole: Poche nuvole
Visibilita: oltre 10 km
dettagli cloud: Poche nuvole 4000 ft,
Poche nuvole 5000 ft
LIMS 221755Z 25005KT 9999 FEW040 FEW050TCU 19/17 Q1012
LIMT - Passo della Cisa
Dati ricevuti: 13-04-2018 12:55
DATI Obsoleti
Nebbia  
Nebbia  
   Vento: S 14.8 km/h
Vento: S 14.8 km/h
Temperatura: 6°C
Temperatura Vento: 3°C
P.to Rugiada: 4°C
Umidita: 87%
Barometro: 1013 hPa
Visibilita: 0 km
dettagli cloud: Coperto
LIMT 131055Z 20008KT 0000 FG VV/// 06/04 Q1013 RMK MON INVIS VAL INVIS VIS MIN 0000
LIPU - Padova
Dati ricevuti: 21-05-2019 08:00
DATI Obsoleti
Parzialmente nuvoloso  
Parzialmente nuvoloso  
   Vento: Variabile 5.6 km/h
Vento: Variabile 5.6 km/h
Temperatura: 14°C
P.to Rugiada: 14°C
Umidita: 100%
Barometro: 1007 hPa
Nuvole: Parzialmente nuvoloso
Visibilita: oltre 10 km
dettagli cloud: Parzialmente nuvoloso 4000 ft
LIPU 210600Z VRB03KT 9999 SCT040 14/14 Q1007

Script sviluppato da  Saratoga-weather.org Adattato per il modello da  Weerstation Leuven

Strumentazione usata:

Stazione meteo
Davis VP2

Programma gestore dati meteo
WVIEW

Server per i dati meteo
Pc-WDS5

Davis VP2

WVIEW

Pc-WDS5